sensor_id;sensor_type;location;lat;lon;timestamp;P1;durP1;ratioP1;P2;durP2;ratioP2
45488;SDS011;31236;55.026;61.042;2023-05-15T00:01:08;33.40;;;24.32;;
45488;SDS011;31236;55.026;61.042;2023-05-15T00:03:38;30.30;;;23.30;;
45488;SDS011;31236;55.026;61.042;2023-05-15T00:06:08;31.60;;;21.73;;
45488;SDS011;31236;55.026;61.042;2023-05-15T00:08:38;29.00;;;21.82;;
45488;SDS011;31236;55.026;61.042;2023-05-15T00:11:08;31.75;;;22.70;;
45488;SDS011;31236;55.026;61.042;2023-05-15T00:17:16;30.45;;;22.25;;
45488;SDS011;31236;55.026;61.042;2023-05-15T00:19:46;35.10;;;22.15;;
45488;SDS011;31236;55.026;61.042;2023-05-15T00:22:39;29.77;;;21.70;;
45488;SDS011;31236;55.026;61.042;2023-05-15T00:25:09;30.35;;;21.17;;
45488;SDS011;31236;55.026;61.042;2023-05-15T00:27:40;33.95;;;23.77;;
45488;SDS011;31236;55.026;61.042;2023-05-15T00:30:12;32.00;;;22.67;;
45488;SDS011;31236;55.026;61.042;2023-05-15T00:32:42;33.28;;;23.22;;
45488;SDS011;31236;55.026;61.042;2023-05-15T00:35:12;34.50;;;24.72;;
45488;SDS011;31236;55.026;61.042;2023-05-15T00:37:42;32.98;;;23.77;;
45488;SDS011;31236;55.026;61.042;2023-05-15T00:40:13;37.23;;;26.27;;
45488;SDS011;31236;55.026;61.042;2023-05-15T00:42:45;39.33;;;26.30;;
45488;SDS011;31236;55.026;61.042;2023-05-15T00:45:18;38.05;;;27.13;;
45488;SDS011;31236;55.026;61.042;2023-05-15T00:47:49;39.00;;;28.05;;
45488;SDS011;31236;55.026;61.042;2023-05-15T00:50:20;42.85;;;28.47;;
45488;SDS011;31236;55.026;61.042;2023-05-15T00:52:51;40.80;;;28.95;;
45488;SDS011;31236;55.026;61.042;2023-05-15T00:55:22;42.87;;;29.00;;
45488;SDS011;31236;55.026;61.042;2023-05-15T00:57:55;38.80;;;29.25;;
45488;SDS011;31236;55.026;61.042;2023-05-15T01:00:27;40.17;;;28.25;;
45488;SDS011;31236;55.026;61.042;2023-05-15T01:02:58;39.80;;;27.00;;
45488;SDS011;31236;55.026;61.042;2023-05-15T01:05:27;37.95;;;27.37;;
45488;SDS011;31236;55.026;61.042;2023-05-15T01:11:45;40.88;;;28.30;;
45488;SDS011;31236;55.026;61.042;2023-05-15T01:14:17;40.43;;;27.67;;
45488;SDS011;31236;55.026;61.042;2023-05-15T01:16:47;35.52;;;26.52;;
45488;SDS011;31236;55.026;61.042;2023-05-15T01:19:17;36.65;;;26.35;;
45488;SDS011;31236;55.026;61.042;2023-05-15T01:25:22;39.27;;;29.48;;
45488;SDS011;31236;55.026;61.042;2023-05-15T01:28:22;36.35;;;27.55;;
45488;SDS011;31236;55.026;61.042;2023-05-15T01:30:41;37.35;;;25.62;;
45488;SDS011;31236;55.026;61.042;2023-05-15T01:36:42;34.80;;;23.73;;
45488;SDS011;31236;55.026;61.042;2023-05-15T01:38:55;32.78;;;23.45;;
45488;SDS011;31236;55.026;61.042;2023-05-15T01:46:54;32.80;;;24.80;;
45488;SDS011;31236;55.026;61.042;2023-05-15T01:49:26;37.58;;;26.12;;
45488;SDS011;31236;55.026;61.042;2023-05-15T01:58:36;36.98;;;25.55;;
45488;SDS011;31236;55.026;61.042;2023-05-15T02:01:08;32.80;;;23.45;;
45488;SDS011;31236;55.026;61.042;2023-05-15T02:03:39;32.15;;;22.73;;
45488;SDS011;31236;55.026;61.042;2023-05-15T02:06:09;31.23;;;23.25;;
45488;SDS011;31236;55.026;61.042;2023-05-15T02:11:31;35.23;;;23.10;;
45488;SDS011;31236;55.026;61.042;2023-05-15T02:17:35;33.33;;;22.62;;
45488;SDS011;31236;55.026;61.042;2023-05-15T02:20:06;31.42;;;23.07;;
45488;SDS011;31236;55.026;61.042;2023-05-15T02:22:37;35.40;;;23.02;;
45488;SDS011;31236;55.026;61.042;2023-05-15T02:25:08;33.88;;;24.18;;
45488;SDS011;31236;55.026;61.042;2023-05-15T02:27:42;34.50;;;23.85;;
45488;SDS011;31236;55.026;61.042;2023-05-15T02:34:02;41.92;;;26.05;;
45488;SDS011;31236;55.026;61.042;2023-05-15T02:37:30;32.93;;;22.45;;
45488;SDS011;31236;55.026;61.042;2023-05-15T02:46:02;32.50;;;23.73;;
45488;SDS011;31236;55.026;61.042;2023-05-15T02:48:33;33.70;;;23.00;;
45488;SDS011;31236;55.026;61.042;2023-05-15T02:51:05;34.53;;;24.07;;
45488;SDS011;31236;55.026;61.042;2023-05-15T02:56:27;31.50;;;23.22;;
45488;SDS011;31236;55.026;61.042;2023-05-15T02:58:57;33.65;;;23.90;;
45488;SDS011;31236;55.026;61.042;2023-05-15T03:01:27;29.05;;;21.77;;
45488;SDS011;31236;55.026;61.042;2023-05-15T03:03:56;30.65;;;22.48;;
45488;SDS011;31236;55.026;61.042;2023-05-15T03:06:27;32.30;;;22.65;;
45488;SDS011;31236;55.026;61.042;2023-05-15T03:08:57;31.60;;;22.35;;
45488;SDS011;31236;55.026;61.042;2023-05-15T03:11:27;31.42;;;20.52;;
45488;SDS011;31236;55.026;61.042;2023-05-15T03:13:57;28.73;;;20.85;;
45488;SDS011;31236;55.026;61.042;2023-05-15T03:16:27;30.85;;;21.05;;
45488;SDS011;31236;55.026;61.042;2023-05-15T03:18:57;29.60;;;21.40;;
45488;SDS011;31236;55.026;61.042;2023-05-15T03:21:26;29.82;;;21.77;;
45488;SDS011;31236;55.026;61.042;2023-05-15T03:23:56;27.32;;;20.85;;
45488;SDS011;31236;55.026;61.042;2023-05-15T03:26:26;28.67;;;20.65;;
45488;SDS011;31236;55.026;61.042;2023-05-15T03:28:56;30.48;;;22.00;;
45488;SDS011;31236;55.026;61.042;2023-05-15T03:31:27;29.48;;;21.15;;
45488;SDS011;31236;55.026;61.042;2023-05-15T03:33:56;29.45;;;21.05;;
45488;SDS011;31236;55.026;61.042;2023-05-15T03:36:26;29.02;;;22.45;;
45488;SDS011;31236;55.026;61.042;2023-05-15T03:38:56;28.92;;;21.17;;
45488;SDS011;31236;55.026;61.042;2023-05-15T03:41:25;29.82;;;22.00;;
45488;SDS011;31236;55.026;61.042;2023-05-15T03:43:55;31.30;;;22.52;;
45488;SDS011;31236;55.026;61.042;2023-05-15T03:46:25;28.52;;;21.42;;
45488;SDS011;31236;55.026;61.042;2023-05-15T03:48:55;28.10;;;20.70;;
45488;SDS011;31236;55.026;61.042;2023-05-15T03:51:24;24.85;;;18.73;;
45488;SDS011;31236;55.026;61.042;2023-05-15T03:53:54;24.72;;;18.80;;
45488;SDS011;31236;55.026;61.042;2023-05-15T03:56:24;25.52;;;18.73;;
45488;SDS011;31236;55.026;61.042;2023-05-15T03:58:54;28.27;;;18.52;;
45488;SDS011;31236;55.026;61.042;2023-05-15T04:01:23;24.55;;;17.90;;
45488;SDS011;31236;55.026;61.042;2023-05-15T04:03:53;23.98;;;17.35;;
45488;SDS011;31236;55.026;61.042;2023-05-15T04:06:23;22.07;;;16.95;;
45488;SDS011;31236;55.026;61.042;2023-05-15T04:08:53;23.92;;;16.40;;
45488;SDS011;31236;55.026;61.042;2023-05-15T04:11:23;25.70;;;17.20;;
45488;SDS011;31236;55.026;61.042;2023-05-15T04:14:12;23.02;;;17.65;;
45488;SDS011;31236;55.026;61.042;2023-05-15T04:16:42;26.73;;;18.40;;
45488;SDS011;31236;55.026;61.042;2023-05-15T04:19:11;27.20;;;18.10;;
45488;SDS011;31236;55.026;61.042;2023-05-15T04:21:41;22.20;;;16.05;;
45488;SDS011;31236;55.026;61.042;2023-05-15T04:24:11;24.45;;;15.05;;
45488;SDS011;31236;55.026;61.042;2023-05-15T04:26:41;21.35;;;14.25;;
45488;SDS011;31236;55.026;61.042;2023-05-15T04:29:10;24.70;;;15.75;;
45488;SDS011;31236;55.026;61.042;2023-05-15T04:31:40;21.90;;;15.65;;
45488;SDS011;31236;55.026;61.042;2023-05-15T04:34:10;21.87;;;15.98;;
45488;SDS011;31236;55.026;61.042;2023-05-15T04:36:41;21.48;;;15.70;;
45488;SDS011;31236;55.026;61.042;2023-05-15T04:39:11;19.10;;;14.45;;
45488;SDS011;31236;55.026;61.042;2023-05-15T04:41:41;21.62;;;14.58;;
45488;SDS011;31236;55.026;61.042;2023-05-15T04:44:11;22.50;;;15.78;;
45488;SDS011;31236;55.026;61.042;2023-05-15T04:46:41;22.90;;;15.70;;
45488;SDS011;31236;55.026;61.042;2023-05-15T04:49:11;22.45;;;15.13;;
45488;SDS011;31236;55.026;61.042;2023-05-15T04:51:41;20.97;;;15.08;;
45488;SDS011;31236;55.026;61.042;2023-05-15T04:54:11;21.97;;;15.78;;
45488;SDS011;31236;55.026;61.042;2023-05-15T04:56:41;20.15;;;15.13;;
45488;SDS011;31236;55.026;61.042;2023-05-15T04:59:13;22.80;;;15.38;;
45488;SDS011;31236;55.026;61.042;2023-05-15T05:01:43;21.17;;;15.48;;
45488;SDS011;31236;55.026;61.042;2023-05-15T05:04:13;21.73;;;15.15;;
45488;SDS011;31236;55.026;61.042;2023-05-15T05:06:45;21.35;;;15.53;;
45488;SDS011;31236;55.026;61.042;2023-05-15T05:09:17;21.50;;;15.80;;
45488;SDS011;31236;55.026;61.042;2023-05-15T05:11:47;21.90;;;15.80;;
45488;SDS011;31236;55.026;61.042;2023-05-15T05:14:17;23.12;;;15.80;;
45488;SDS011;31236;55.026;61.042;2023-05-15T05:16:48;22.50;;;16.12;;
45488;SDS011;31236;55.026;61.042;2023-05-15T05:19:18;20.77;;;15.60;;
45488;SDS011;31236;55.026;61.042;2023-05-15T05:21:48;21.45;;;15.32;;
45488;SDS011;31236;55.026;61.042;2023-05-15T05:24:18;20.82;;;14.80;;
45488;SDS011;31236;55.026;61.042;2023-05-15T05:26:48;22.22;;;16.42;;
45488;SDS011;31236;55.026;61.042;2023-05-15T05:29:18;21.35;;;16.50;;
45488;SDS011;31236;55.026;61.042;2023-05-15T05:31:48;21.87;;;16.12;;
45488;SDS011;31236;55.026;61.042;2023-05-15T05:34:18;22.85;;;16.30;;
45488;SDS011;31236;55.026;61.042;2023-05-15T05:36:48;22.60;;;15.55;;
45488;SDS011;31236;55.026;61.042;2023-05-15T05:39:17;22.82;;;17.42;;
45488;SDS011;31236;55.026;61.042;2023-05-15T05:41:47;22.48;;;15.45;;
45488;SDS011;31236;55.026;61.042;2023-05-15T05:44:17;21.70;;;16.15;;
45488;SDS011;31236;55.026;61.042;2023-05-15T05:46:47;23.22;;;16.27;;
45488;SDS011;31236;55.026;61.042;2023-05-15T05:49:17;22.52;;;16.00;;
45488;SDS011;31236;55.026;61.042;2023-05-15T05:51:46;24.10;;;16.90;;
45488;SDS011;31236;55.026;61.042;2023-05-15T05:54:16;23.47;;;16.48;;
45488;SDS011;31236;55.026;61.042;2023-05-15T05:56:46;24.70;;;16.70;;
45488;SDS011;31236;55.026;61.042;2023-05-15T05:59:16;22.87;;;16.75;;
45488;SDS011;31236;55.026;61.042;2023-05-15T06:01:46;22.50;;;16.32;;
45488;SDS011;31236;55.026;61.042;2023-05-15T06:04:17;23.50;;;16.87;;
45488;SDS011;31236;55.026;61.042;2023-05-15T06:06:47;22.65;;;15.38;;
45488;SDS011;31236;55.026;61.042;2023-05-15T06:09:17;25.37;;;17.23;;
45488;SDS011;31236;55.026;61.042;2023-05-15T06:11:47;27.40;;;17.42;;
45488;SDS011;31236;55.026;61.042;2023-05-15T06:14:17;22.55;;;16.12;;
45488;SDS011;31236;55.026;61.042;2023-05-15T06:16:47;21.60;;;16.45;;
45488;SDS011;31236;55.026;61.042;2023-05-15T06:19:17;22.77;;;15.93;;
45488;SDS011;31236;55.026;61.042;2023-05-15T06:21:47;21.37;;;16.60;;
45488;SDS011;31236;55.026;61.042;2023-05-15T06:24:17;25.90;;;17.82;;
45488;SDS011;31236;55.026;61.042;2023-05-15T06:26:47;22.80;;;16.65;;
45488;SDS011;31236;55.026;61.042;2023-05-15T06:29:17;22.05;;;16.02;;
45488;SDS011;31236;55.026;61.042;2023-05-15T06:31:47;21.90;;;16.35;;
45488;SDS011;31236;55.026;61.042;2023-05-15T06:34:17;23.15;;;16.25;;
45488;SDS011;31236;55.026;61.042;2023-05-15T06:36:46;23.18;;;16.60;;
45488;SDS011;31236;55.026;61.042;2023-05-15T06:39:17;23.95;;;16.20;;
45488;SDS011;31236;55.026;61.042;2023-05-15T06:41:47;23.57;;;16.73;;
45488;SDS011;31236;55.026;61.042;2023-05-15T06:44:19;23.70;;;17.33;;
45488;SDS011;31236;55.026;61.042;2023-05-15T06:46:48;24.35;;;17.23;;
45488;SDS011;31236;55.026;61.042;2023-05-15T06:49:18;21.10;;;16.27;;
45488;SDS011;31236;55.026;61.042;2023-05-15T06:51:48;20.80;;;16.02;;
45488;SDS011;31236;55.026;61.042;2023-05-15T06:54:20;22.02;;;16.52;;
45488;SDS011;31236;55.026;61.042;2023-05-15T06:56:49;22.15;;;16.55;;
45488;SDS011;31236;55.026;61.042;2023-05-15T06:59:19;22.62;;;16.97;;
45488;SDS011;31236;55.026;61.042;2023-05-15T07:01:50;23.20;;;16.32;;
45488;SDS011;31236;55.026;61.042;2023-05-15T07:04:21;22.40;;;16.93;;
45488;SDS011;31236;55.026;61.042;2023-05-15T07:06:51;25.37;;;17.02;;
45488;SDS011;31236;55.026;61.042;2023-05-15T07:09:21;25.12;;;17.67;;
45488;SDS011;31236;55.026;61.042;2023-05-15T07:11:51;24.00;;;17.92;;
45488;SDS011;31236;55.026;61.042;2023-05-15T07:14:21;23.05;;;18.40;;
45488;SDS011;31236;55.026;61.042;2023-05-15T07:16:51;22.67;;;16.60;;
45488;SDS011;31236;55.026;61.042;2023-05-15T07:19:21;23.60;;;17.98;;
45488;SDS011;31236;55.026;61.042;2023-05-15T07:21:51;26.33;;;18.25;;
45488;SDS011;31236;55.026;61.042;2023-05-15T07:24:21;23.85;;;16.75;;
45488;SDS011;31236;55.026;61.042;2023-05-15T07:26:50;24.70;;;18.70;;
45488;SDS011;31236;55.026;61.042;2023-05-15T07:29:21;24.60;;;18.60;;
45488;SDS011;31236;55.026;61.042;2023-05-15T07:31:51;27.25;;;19.77;;
45488;SDS011;31236;55.026;61.042;2023-05-15T07:34:21;24.40;;;18.30;;
45488;SDS011;31236;55.026;61.042;2023-05-15T07:36:51;25.57;;;18.60;;
45488;SDS011;31236;55.026;61.042;2023-05-15T07:39:21;25.37;;;19.27;;
45488;SDS011;31236;55.026;61.042;2023-05-15T07:41:50;25.92;;;18.15;;
45488;SDS011;31236;55.026;61.042;2023-05-15T07:44:20;24.10;;;18.12;;
45488;SDS011;31236;55.026;61.042;2023-05-15T07:46:50;24.07;;;17.48;;
45488;SDS011;31236;55.026;61.042;2023-05-15T07:49:20;27.50;;;18.27;;
45488;SDS011;31236;55.026;61.042;2023-05-15T07:51:50;24.45;;;18.12;;
45488;SDS011;31236;55.026;61.042;2023-05-15T07:54:21;26.75;;;19.00;;
45488;SDS011;31236;55.026;61.042;2023-05-15T07:56:52;25.57;;;18.37;;
45488;SDS011;31236;55.026;61.042;2023-05-15T07:59:23;23.83;;;17.52;;
45488;SDS011;31236;55.026;61.042;2023-05-15T08:01:53;24.85;;;18.37;;
45488;SDS011;31236;55.026;61.042;2023-05-15T08:04:23;22.82;;;18.00;;
45488;SDS011;31236;55.026;61.042;2023-05-15T08:06:53;24.50;;;18.12;;
45488;SDS011;31236;55.026;61.042;2023-05-15T08:09:23;25.45;;;19.70;;
45488;SDS011;31236;55.026;61.042;2023-05-15T08:14:24;25.30;;;19.98;;
45488;SDS011;31236;55.026;61.042;2023-05-15T08:16:54;25.72;;;19.98;;
45488;SDS011;31236;55.026;61.042;2023-05-15T08:19:24;27.62;;;20.88;;
45488;SDS011;31236;55.026;61.042;2023-05-15T08:21:53;28.57;;;20.92;;
45488;SDS011;31236;55.026;61.042;2023-05-15T08:24:23;32.73;;;21.25;;
45488;SDS011;31236;55.026;61.042;2023-05-15T08:26:53;26.60;;;20.92;;
45488;SDS011;31236;55.026;61.042;2023-05-15T08:29:23;28.70;;;21.65;;
45488;SDS011;31236;55.026;61.042;2023-05-15T08:31:52;30.37;;;20.48;;
45488;SDS011;31236;55.026;61.042;2023-05-15T08:34:23;28.12;;;20.77;;
45488;SDS011;31236;55.026;61.042;2023-05-15T08:36:52;28.55;;;20.60;;
45488;SDS011;31236;55.026;61.042;2023-05-15T08:39:22;30.57;;;22.07;;
45488;SDS011;31236;55.026;61.042;2023-05-15T08:45:00;27.67;;;20.57;;
45488;SDS011;31236;55.026;61.042;2023-05-15T08:47:31;29.07;;;20.17;;
45488;SDS011;31236;55.026;61.042;2023-05-15T08:50:05;30.80;;;22.07;;
45488;SDS011;31236;55.026;61.042;2023-05-15T08:52:55;32.53;;;22.82;;
45488;SDS011;31236;55.026;61.042;2023-05-15T08:55:26;32.42;;;22.42;;
45488;SDS011;31236;55.026;61.042;2023-05-15T08:57:59;28.40;;;22.80;;
45488;SDS011;31236;55.026;61.042;2023-05-15T09:00:30;36.35;;;23.02;;
45488;SDS011;31236;55.026;61.042;2023-05-15T09:03:00;28.85;;;22.17;;
45488;SDS011;31236;55.026;61.042;2023-05-15T09:05:30;33.85;;;22.70;;
45488;SDS011;31236;55.026;61.042;2023-05-15T09:08:00;30.55;;;22.30;;
45488;SDS011;31236;55.026;61.042;2023-05-15T09:10:33;30.55;;;22.48;;
45488;SDS011;31236;55.026;61.042;2023-05-15T09:13:02;30.92;;;23.02;;
45488;SDS011;31236;55.026;61.042;2023-05-15T09:15:34;30.20;;;22.58;;
45488;SDS011;31236;55.026;61.042;2023-05-15T09:18:05;33.88;;;23.55;;
45488;SDS011;31236;55.026;61.042;2023-05-15T09:20:36;29.12;;;22.10;;
45488;SDS011;31236;55.026;61.042;2023-05-15T09:23:20;32.20;;;22.05;;
45488;SDS011;31236;55.026;61.042;2023-05-15T09:25:40;29.00;;;21.82;;
45488;SDS011;31236;55.026;61.042;2023-05-15T09:31:02;28.17;;;21.73;;
45488;SDS011;31236;55.026;61.042;2023-05-15T09:33:35;31.37;;;23.55;;
45488;SDS011;31236;55.026;61.042;2023-05-15T09:36:07;28.98;;;22.37;;
45488;SDS011;31236;55.026;61.042;2023-05-15T09:41:30;30.50;;;22.85;;
45488;SDS011;31236;55.026;61.042;2023-05-15T09:44:00;32.00;;;22.82;;
45488;SDS011;31236;55.026;61.042;2023-05-15T09:46:29;28.87;;;22.17;;
45488;SDS011;31236;55.026;61.042;2023-05-15T09:49:02;29.20;;;21.62;;
45488;SDS011;31236;55.026;61.042;2023-05-15T09:51:31;30.82;;;20.90;;
45488;SDS011;31236;55.026;61.042;2023-05-15T09:54:02;26.95;;;21.40;;
45488;SDS011;31236;55.026;61.042;2023-05-15T09:56:31;27.35;;;20.43;;
45488;SDS011;31236;55.026;61.042;2023-05-15T09:59:01;30.92;;;22.00;;
45488;SDS011;31236;55.026;61.042;2023-05-15T10:01:31;32.60;;;21.73;;
45488;SDS011;31236;55.026;61.042;2023-05-15T10:04:03;28.27;;;21.17;;
45488;SDS011;31236;55.026;61.042;2023-05-15T10:06:34;30.77;;;21.20;;
45488;SDS011;31236;55.026;61.042;2023-05-15T10:09:04;27.02;;;20.52;;
45488;SDS011;31236;55.026;61.042;2023-05-15T10:11:36;30.05;;;21.12;;
45488;SDS011;31236;55.026;61.042;2023-05-15T10:14:09;27.35;;;21.12;;
45488;SDS011;31236;55.026;61.042;2023-05-15T10:19:09;31.40;;;23.22;;
45488;SDS011;31236;55.026;61.042;2023-05-15T10:21:40;34.53;;;23.02;;
45488;SDS011;31236;55.026;61.042;2023-05-15T10:24:12;30.43;;;22.48;;
45488;SDS011;31236;55.026;61.042;2023-05-15T10:26:44;32.98;;;24.23;;
45488;SDS011;31236;55.026;61.042;2023-05-15T10:29:18;32.78;;;23.92;;
45488;SDS011;31236;55.026;61.042;2023-05-15T10:31:47;30.00;;;22.73;;
45488;SDS011;31236;55.026;61.042;2023-05-15T10:34:17;30.40;;;23.15;;
45488;SDS011;31236;55.026;61.042;2023-05-15T10:36:47;30.37;;;23.98;;
45488;SDS011;31236;55.026;61.042;2023-05-15T10:39:18;31.07;;;23.60;;
45488;SDS011;31236;55.026;61.042;2023-05-15T10:41:49;29.55;;;24.12;;
45488;SDS011;31236;55.026;61.042;2023-05-15T10:44:20;35.55;;;23.45;;
45488;SDS011;31236;55.026;61.042;2023-05-15T10:46:51;33.98;;;24.00;;
45488;SDS011;31236;55.026;61.042;2023-05-15T10:49:22;33.02;;;25.75;;
45488;SDS011;31236;55.026;61.042;2023-05-15T10:51:53;39.15;;;27.20;;
45488;SDS011;31236;55.026;61.042;2023-05-15T10:54:23;36.70;;;27.40;;
45488;SDS011;31236;55.026;61.042;2023-05-15T10:56:54;37.08;;;27.77;;
